createdAt,value
2023-01-12T00:03:59.695Z,7.83
2023-01-12T00:09:19.892Z,7.27
2023-01-12T00:14:29.335Z,4.77
2023-01-12T00:19:40.350Z,8.47
2023-01-12T00:24:45.793Z,8.13
2023-01-12T00:29:48.011Z,5.27
2023-01-12T00:34:50.988Z,6.73
2023-01-12T00:50:43.895Z,5.10
2023-01-12T00:55:46.271Z,8.53
2023-01-12T01:06:14.191Z,9.53
2023-01-12T01:11:16.128Z,7.43
2023-01-12T01:16:20.222Z,14.10
2023-01-12T01:21:25.427Z,10.73
2023-01-12T01:26:27.353Z,8.93
2023-01-12T01:31:29.345Z,5.63
2023-01-12T01:36:31.164Z,9.10
2023-01-12T02:03:39.931Z,5.07
2023-01-12T02:08:45.904Z,5.20
2023-01-12T02:14:06.208Z,5.50
2023-01-12T02:19:17.859Z,4.37
2023-01-12T02:24:42.461Z,4.47
2023-01-12T02:30:15.796Z,5.57
2023-01-12T02:35:22.320Z,5.63
2023-01-12T02:40:39.977Z,5.17
2023-01-12T02:45:54.765Z,5.77
2023-01-12T02:51:17.257Z,6.80
2023-01-12T02:56:25.589Z,9.27
2023-01-12T03:01:28.356Z,7.00
2023-01-12T03:06:43.443Z,8.47
2023-01-12T03:11:49.044Z,5.83
2023-01-12T03:16:51.925Z,6.00
2023-01-12T03:21:59.619Z,7.93
2023-01-12T03:27:10.649Z,10.13
2023-01-12T03:32:12.350Z,3.43
2023-01-12T03:38:09.623Z,6.17
2023-01-12T03:43:29.141Z,15.47
2023-01-12T03:48:41.236Z,5.53
2023-01-12T03:53:43.559Z,7.50
2023-01-12T03:58:46.289Z,9.10
2023-01-12T04:03:47.938Z,11.27
2023-01-12T04:08:52.425Z,13.33
2023-01-12T04:13:54.147Z,12.87
2023-01-12T04:18:55.878Z,14.33
2023-01-12T04:23:57.644Z,10.77
2023-01-12T04:29:01.918Z,9.37
2023-01-12T04:34:03.653Z,7.67
2023-01-12T04:39:05.423Z,5.23
2023-01-12T04:44:07.308Z,9.00
2023-01-12T04:49:09.218Z,6.93
2023-01-12T04:54:11.363Z,8.23
2023-01-12T04:59:14.452Z,6.17
2023-01-12T05:04:22.499Z,4.93
2023-01-12T05:09:46.269Z,4.07
2023-01-12T05:14:49.369Z,4.13
2023-01-12T05:19:51.237Z,6.40
2023-01-12T05:24:52.968Z,6.40
2023-01-12T05:29:57.024Z,5.87
2023-01-12T05:35:01.520Z,6.63
2023-01-12T05:40:03.629Z,3.67
2023-01-12T05:45:07.349Z,6.13
2023-01-12T05:50:19.509Z,3.17
2023-01-12T05:55:21.330Z,2.03
2023-01-12T06:00:23.504Z,3.40
2023-01-12T06:05:25.514Z,5.97
2023-01-12T06:10:27.347Z,8.03
2023-01-12T06:15:29.245Z,2.53
2023-01-12T06:20:51.403Z,3.67
2023-01-12T06:25:53.158Z,5.87
2023-01-12T06:30:59.869Z,4.03
2023-01-12T06:36:01.820Z,3.10
2023-01-12T06:41:06.528Z,2.03
2023-01-12T06:46:08.269Z,2.53
2023-01-12T06:51:10.001Z,0.90
2023-01-12T06:56:11.756Z,2.30
2023-01-12T07:01:14.177Z,1.90
2023-01-12T07:06:17.434Z,2.10
2023-01-12T07:11:19.195Z,1.57
2023-01-12T07:16:21.016Z,2.33
2023-01-12T07:21:22.791Z,2.70
2023-01-12T07:26:24.495Z,1.43
2023-01-12T07:31:26.263Z,1.13
2023-01-12T07:36:27.968Z,1.27
2023-01-12T07:41:48.497Z,1.20
2023-01-12T07:46:50.144Z,1.30
2023-01-12T07:51:55.871Z,1.97
2023-01-12T07:56:58.842Z,2.60
2023-01-12T08:02:00.739Z,1.30
2023-01-12T08:07:04.308Z,0.80
2023-01-12T08:12:09.627Z,1.63
2023-01-12T08:17:22.633Z,0.63
2023-01-12T08:22:30.683Z,0.77
2023-01-12T08:27:34.362Z,0.47
2023-01-12T08:32:40.268Z,0.77
2023-01-12T08:37:42.165Z,0.57
2023-01-12T08:42:52.063Z,1.00
2023-01-12T08:47:56.302Z,1.13
2023-01-12T08:52:59.333Z,1.23
2023-01-12T08:58:03.557Z,1.23
2023-01-12T09:03:09.223Z,1.07
2023-01-12T09:08:11.374Z,0.90
2023-01-12T09:13:15.854Z,3.60
2023-01-12T09:18:19.697Z,2.27
2023-01-12T09:23:24.875Z,2.37
2023-01-12T09:28:33.526Z,1.53
2023-01-12T09:33:40.911Z,3.70
2023-01-12T09:38:44.329Z,1.80
2023-01-12T09:44:05.303Z,5.27
2023-01-12T09:49:08.871Z,2.10
2023-01-12T09:54:13.705Z,3.00
2023-01-12T09:59:42.510Z,4.33
2023-01-12T10:04:48.336Z,4.67
2023-01-12T10:09:51.130Z,3.60
2023-01-12T10:15:50.116Z,3.27
2023-01-12T10:21:00.104Z,3.23
2023-01-12T10:26:34.252Z,6.43
2023-01-12T10:31:39.558Z,2.87
2023-01-12T10:36:56.276Z,4.50
2023-01-12T10:42:39.516Z,6.40
2023-01-12T10:47:42.879Z,5.23
2023-01-12T10:52:44.842Z,2.53
2023-01-12T10:57:53.013Z,4.90
2023-01-12T11:02:56.069Z,3.43
2023-01-12T11:08:03.034Z,6.43
2023-01-12T11:13:36.449Z,5.67
2023-01-12T11:19:04.785Z,8.17
2023-01-12T11:24:13.028Z,4.33
2023-01-12T11:29:40.099Z,5.37
2023-01-12T11:35:22.253Z,3.17
2023-01-12T11:40:34.958Z,3.60
2023-01-12T11:46:01.964Z,3.10
2023-01-12T11:51:15.722Z,2.33
2023-01-12T11:56:57.960Z,2.47
2023-01-12T12:02:41.929Z,2.20
2023-01-12T12:08:21.379Z,5.67
2023-01-12T12:13:37.602Z,2.20
2023-01-12T12:19:09.509Z,3.43
2023-01-12T12:24:39.184Z,2.40
2023-01-12T12:30:11.653Z,2.30
2023-01-12T12:35:50.034Z,2.80
2023-01-12T12:41:44.349Z,1.70
2023-01-12T12:47:02.684Z,2.37
2023-01-12T12:52:08.682Z,3.43
2023-01-12T12:57:11.700Z,4.17
2023-01-12T13:02:31.971Z,3.37
2023-01-12T13:07:39.161Z,3.00
2023-01-12T13:12:41.399Z,1.93
2023-01-12T13:17:44.909Z,2.77
2023-01-12T13:22:48.706Z,1.60
2023-01-12T13:27:56.305Z,2.40
2023-01-12T13:33:11.234Z,1.43
2023-01-12T13:38:36.286Z,2.20
2023-01-12T13:43:42.315Z,2.57
2023-01-12T13:48:49.994Z,3.93
2023-01-12T13:54:18.247Z,3.50
2023-01-12T13:59:20.118Z,3.40
2023-01-12T14:04:41.963Z,2.90
2023-01-12T14:09:59.063Z,5.17
2023-01-12T14:15:55.530Z,2.67
2023-01-12T14:20:59.208Z,1.10
2023-01-12T14:26:14.436Z,2.20
2023-01-12T14:31:26.975Z,3.23
2023-01-12T14:36:42.145Z,2.83
2023-01-12T14:42:09.230Z,3.50
2023-01-12T14:47:22.738Z,4.17
2023-01-12T14:52:26.465Z,2.70
2023-01-12T14:57:46.475Z,2.83
2023-01-12T15:02:53.590Z,2.13
2023-01-12T15:08:01.479Z,1.50
2023-01-12T15:13:37.229Z,0.90
2023-01-12T15:19:00.410Z,0.50
2023-01-12T15:24:26.510Z,0.70
2023-01-12T15:29:29.213Z,5.57
2023-01-12T15:34:32.047Z,1.93
2023-01-12T15:39:34.263Z,2.40
2023-01-12T15:44:38.230Z,1.07
2023-01-12T15:49:48.329Z,1.00
2023-01-12T15:54:52.179Z,1.43
2023-01-12T15:59:53.936Z,1.20
2023-01-12T16:05:13.623Z,3.03
2023-01-12T16:10:24.975Z,2.47
2023-01-12T16:15:31.981Z,3.43
2023-01-12T16:20:33.768Z,2.77
2023-01-12T16:25:35.732Z,3.60
2023-01-12T16:30:44.935Z,2.97
2023-01-12T16:35:49.472Z,3.30
2023-01-12T16:40:51.301Z,1.67
2023-01-12T16:45:53.241Z,1.80
2023-01-12T16:50:54.975Z,1.80
2023-01-12T16:55:59.934Z,5.37
2023-01-12T17:02:06.104Z,2.97
2023-01-12T17:07:08.842Z,2.07
2023-01-12T17:12:10.918Z,2.97
2023-01-12T17:17:38.929Z,1.83
2023-01-12T17:22:40.729Z,1.97
2023-01-12T17:27:51.825Z,4.50
2023-01-12T17:32:53.668Z,12.50
2023-01-12T17:37:55.634Z,11.33
2023-01-12T17:43:03.705Z,2.33
2023-01-12T17:48:05.837Z,1.87
2023-01-12T17:53:10.778Z,2.37
2023-01-12T17:58:12.979Z,2.10
2023-01-12T18:03:14.914Z,1.53
2023-01-12T18:08:20.044Z,3.53
2023-01-12T18:19:52.211Z,1.93
2023-01-12T18:24:54.485Z,1.87
2023-01-12T18:30:06.584Z,2.23
2023-01-12T18:35:08.869Z,2.17
2023-01-12T18:41:09.271Z,1.83
2023-01-12T18:46:59.017Z,2.43
2023-01-12T18:52:31.823Z,1.47
2023-01-12T18:57:34.462Z,2.60
2023-01-12T19:02:36.463Z,3.03
2023-01-12T19:08:03.941Z,1.97
2023-01-12T19:13:24.466Z,1.67
2023-01-12T19:18:27.110Z,1.70
2023-01-12T19:23:55.659Z,2.33
2023-01-12T19:28:59.587Z,1.93
2023-01-12T19:34:03.403Z,2.00
2023-01-12T19:39:07.408Z,3.83
2023-01-12T19:44:15.089Z,1.37
2023-01-12T19:49:29.982Z,1.63
2023-01-12T19:54:31.775Z,2.57
2023-01-12T19:59:44.608Z,1.50
2023-01-12T20:04:46.373Z,2.20
2023-01-12T20:09:48.393Z,2.03
2023-01-12T20:14:50.514Z,1.87
2023-01-12T20:19:52.248Z,2.10
2023-01-12T20:24:54.138Z,3.30
2023-01-12T20:35:23.381Z,2.00
2023-01-12T20:40:25.107Z,1.67
2023-01-12T20:45:27.234Z,1.60
2023-01-12T20:50:29.081Z,3.20
2023-01-12T20:55:41.910Z,8.93
2023-01-12T21:00:44.973Z,1.63
2023-01-12T21:05:47.935Z,3.93
2023-01-12T21:10:57.972Z,3.50
2023-01-12T21:16:01.521Z,2.30
2023-01-12T21:21:07.662Z,2.07
2023-01-12T21:26:14.055Z,1.93
2023-01-12T21:31:15.943Z,1.97
2023-01-12T21:36:18.725Z,3.50
2023-01-12T21:41:21.886Z,2.37
2023-01-12T21:46:38.376Z,1.37
2023-01-12T21:51:45.682Z,1.53
2023-01-12T21:57:04.681Z,1.10
2023-01-12T22:02:16.149Z,1.43
2023-01-12T22:07:30.397Z,2.53
2023-01-12T22:12:32.141Z,1.47
2023-01-12T22:17:34.004Z,1.50
2023-01-12T22:22:46.197Z,1.00
2023-01-12T22:27:47.918Z,11.60
2023-01-12T22:33:02.218Z,3.50
2023-01-12T22:38:04.219Z,1.30
2023-01-12T22:43:25.078Z,1.93
2023-01-12T22:48:27.658Z,1.90
2023-01-12T22:53:29.418Z,1.33
2023-01-12T22:58:31.726Z,1.30
2023-01-12T23:03:34.624Z,1.20
2023-01-12T23:08:36.606Z,0.87
2023-01-12T23:13:39.429Z,1.30
2023-01-12T23:18:46.758Z,1.03
2023-01-12T23:23:53.927Z,1.87
2023-01-12T23:29:00.672Z,1.80
2023-01-12T23:34:05.660Z,2.67
2023-01-12T23:39:11.864Z,3.10
2023-01-12T23:44:13.838Z,1.67
2023-01-12T23:49:16.056Z,1.60
2023-01-12T23:54:18.390Z,1.40
2023-01-12T23:59:20.424Z,1.50
